sensor_id;sensor_type;location;lat;lon;timestamp;P1;durP1;ratioP1;P2;durP2;ratioP2
18669;SDS011;9464;44.918;9.670;2022-12-19T00:00:28;49.47;;;20.60;;
18669;SDS011;9464;44.918;9.670;2022-12-19T00:02:57;44.93;;;19.30;;
18669;SDS011;9464;44.918;9.670;2022-12-19T00:05:26;30.80;;;15.63;;
18669;SDS011;9464;44.918;9.670;2022-12-19T00:07:54;24.97;;;13.80;;
18669;SDS011;9464;44.918;9.670;2022-12-19T00:10:25;27.07;;;15.13;;
18669;SDS011;9464;44.918;9.670;2022-12-19T00:12:54;29.90;;;13.97;;
18669;SDS011;9464;44.918;9.670;2022-12-19T00:15:22;27.63;;;14.57;;
18669;SDS011;9464;44.918;9.670;2022-12-19T00:17:51;32.23;;;15.73;;
18669;SDS011;9464;44.918;9.670;2022-12-19T00:20:21;28.37;;;14.90;;
18669;SDS011;9464;44.918;9.670;2022-12-19T00:22:49;27.97;;;14.23;;
18669;SDS011;9464;44.918;9.670;2022-12-19T00:25:17;27.23;;;13.80;;
18669;SDS011;9464;44.918;9.670;2022-12-19T00:27:47;22.20;;;11.70;;
18669;SDS011;9464;44.918;9.670;2022-12-19T00:30:15;28.23;;;13.07;;
18669;SDS011;9464;44.918;9.670;2022-12-19T00:32:44;28.27;;;15.93;;
18669;SDS011;9464;44.918;9.670;2022-12-19T00:35:13;30.73;;;15.97;;
18669;SDS011;9464;44.918;9.670;2022-12-19T00:37:43;34.17;;;16.10;;
18669;SDS011;9464;44.918;9.670;2022-12-19T00:40:15;36.23;;;17.70;;
18669;SDS011;9464;44.918;9.670;2022-12-19T00:42:43;31.97;;;16.80;;
18669;SDS011;9464;44.918;9.670;2022-12-19T00:45:18;28.80;;;14.40;;
18669;SDS011;9464;44.918;9.670;2022-12-19T00:47:47;25.87;;;13.93;;
18669;SDS011;9464;44.918;9.670;2022-12-19T00:50:15;29.30;;;15.70;;
18669;SDS011;9464;44.918;9.670;2022-12-19T00:52:45;27.83;;;15.17;;
18669;SDS011;9464;44.918;9.670;2022-12-19T00:55:14;33.07;;;16.17;;
18669;SDS011;9464;44.918;9.670;2022-12-19T00:57:44;31.60;;;15.17;;
18669;SDS011;9464;44.918;9.670;2022-12-19T01:00:13;27.03;;;13.77;;
18669;SDS011;9464;44.918;9.670;2022-12-19T01:02:42;29.57;;;14.37;;
18669;SDS011;9464;44.918;9.670;2022-12-19T01:05:11;25.00;;;13.23;;
18669;SDS011;9464;44.918;9.670;2022-12-19T01:07:39;26.57;;;14.10;;
18669;SDS011;9464;44.918;9.670;2022-12-19T01:10:09;28.43;;;13.40;;
18669;SDS011;9464;44.918;9.670;2022-12-19T01:12:38;23.53;;;13.20;;
18669;SDS011;9464;44.918;9.670;2022-12-19T01:15:12;23.93;;;12.63;;
18669;SDS011;9464;44.918;9.670;2022-12-19T01:17:40;29.50;;;12.73;;
18669;SDS011;9464;44.918;9.670;2022-12-19T01:20:10;20.13;;;11.33;;
18669;SDS011;9464;44.918;9.670;2022-12-19T01:22:39;23.30;;;12.27;;
18669;SDS011;9464;44.918;9.670;2022-12-19T01:25:08;23.80;;;11.83;;
18669;SDS011;9464;44.918;9.670;2022-12-19T01:27:37;19.80;;;10.70;;
18669;SDS011;9464;44.918;9.670;2022-12-19T01:30:06;20.00;;;10.67;;
18669;SDS011;9464;44.918;9.670;2022-12-19T01:32:36;21.97;;;10.83;;
18669;SDS011;9464;44.918;9.670;2022-12-19T01:35:05;19.93;;;10.37;;
18669;SDS011;9464;44.918;9.670;2022-12-19T01:37:41;18.77;;;9.63;;
18669;SDS011;9464;44.918;9.670;2022-12-19T01:40:10;16.37;;;9.47;;
18669;SDS011;9464;44.918;9.670;2022-12-19T01:42:41;26.33;;;10.50;;
18669;SDS011;9464;44.918;9.670;2022-12-19T01:45:28;17.27;;;10.43;;
18669;SDS011;9464;44.918;9.670;2022-12-19T01:48:06;19.30;;;9.77;;
18669;SDS011;9464;44.918;9.670;2022-12-19T01:50:35;19.93;;;10.90;;
18669;SDS011;9464;44.918;9.670;2022-12-19T01:53:08;19.43;;;10.13;;
18669;SDS011;9464;44.918;9.670;2022-12-19T01:55:38;23.57;;;11.50;;
18669;SDS011;9464;44.918;9.670;2022-12-19T01:58:08;20.13;;;11.03;;
18669;SDS011;9464;44.918;9.670;2022-12-19T02:00:37;23.20;;;10.87;;
18669;SDS011;9464;44.918;9.670;2022-12-19T02:03:07;18.10;;;10.23;;
18669;SDS011;9464;44.918;9.670;2022-12-19T02:05:38;16.63;;;9.70;;
18669;SDS011;9464;44.918;9.670;2022-12-19T02:08:07;21.83;;;11.73;;
18669;SDS011;9464;44.918;9.670;2022-12-19T02:10:35;22.03;;;11.83;;
18669;SDS011;9464;44.918;9.670;2022-12-19T02:13:04;20.80;;;11.90;;
18669;SDS011;9464;44.918;9.670;2022-12-19T02:15:45;28.43;;;12.40;;
18669;SDS011;9464;44.918;9.670;2022-12-19T02:18:17;25.63;;;12.70;;
18669;SDS011;9464;44.918;9.670;2022-12-19T02:20:57;26.07;;;13.20;;
18669;SDS011;9464;44.918;9.670;2022-12-19T02:26:21;26.77;;;13.67;;
18669;SDS011;9464;44.918;9.670;2022-12-19T02:28:56;28.43;;;14.03;;
18669;SDS011;9464;44.918;9.670;2022-12-19T02:31:27;25.20;;;12.80;;
18669;SDS011;9464;44.918;9.670;2022-12-19T02:33:58;29.70;;;15.23;;
18669;SDS011;9464;44.918;9.670;2022-12-19T02:36:31;32.77;;;16.03;;
18669;SDS011;9464;44.918;9.670;2022-12-19T02:39:07;31.90;;;16.20;;
18669;SDS011;9464;44.918;9.670;2022-12-19T02:41:37;30.37;;;15.57;;
18669;SDS011;9464;44.918;9.670;2022-12-19T02:44:09;37.97;;;18.17;;
18669;SDS011;9464;44.918;9.670;2022-12-19T02:46:40;36.53;;;17.10;;
18669;SDS011;9464;44.918;9.670;2022-12-19T02:49:10;28.23;;;15.47;;
18669;SDS011;9464;44.918;9.670;2022-12-19T02:51:46;35.80;;;16.30;;
18669;SDS011;9464;44.918;9.670;2022-12-19T02:54:14;48.33;;;24.87;;
18669;SDS011;9464;44.918;9.670;2022-12-19T02:56:44;33.60;;;17.13;;
18669;SDS011;9464;44.918;9.670;2022-12-19T02:59:26;33.93;;;16.00;;
18669;SDS011;9464;44.918;9.670;2022-12-19T03:01:58;33.93;;;16.77;;
18669;SDS011;9464;44.918;9.670;2022-12-19T03:04:30;35.70;;;16.80;;
18669;SDS011;9464;44.918;9.670;2022-12-19T03:07:02;34.57;;;16.43;;
18669;SDS011;9464;44.918;9.670;2022-12-19T03:09:37;32.67;;;15.97;;
18669;SDS011;9464;44.918;9.670;2022-12-19T03:12:08;29.13;;;15.20;;
18669;SDS011;9464;44.918;9.670;2022-12-19T03:14:42;33.10;;;16.13;;
18669;SDS011;9464;44.918;9.670;2022-12-19T03:17:14;34.97;;;15.97;;
18669;SDS011;9464;44.918;9.670;2022-12-19T03:19:42;31.10;;;15.37;;
18669;SDS011;9464;44.918;9.670;2022-12-19T03:22:11;37.90;;;15.90;;
18669;SDS011;9464;44.918;9.670;2022-12-19T03:24:39;30.13;;;14.60;;
18669;SDS011;9464;44.918;9.670;2022-12-19T03:27:08;32.73;;;16.13;;
18669;SDS011;9464;44.918;9.670;2022-12-19T03:29:41;35.20;;;16.93;;
18669;SDS011;9464;44.918;9.670;2022-12-19T03:32:14;37.67;;;17.80;;
18669;SDS011;9464;44.918;9.670;2022-12-19T03:34:44;37.50;;;18.17;;
18669;SDS011;9464;44.918;9.670;2022-12-19T03:37:15;33.70;;;18.07;;
18669;SDS011;9464;44.918;9.670;2022-12-19T03:39:45;34.57;;;15.30;;
18669;SDS011;9464;44.918;9.670;2022-12-19T03:42:15;35.20;;;16.33;;
18669;SDS011;9464;44.918;9.670;2022-12-19T03:45:03;33.57;;;15.03;;
18669;SDS011;9464;44.918;9.670;2022-12-19T03:47:33;32.17;;;16.50;;
18669;SDS011;9464;44.918;9.670;2022-12-19T03:50:02;35.43;;;17.73;;
18669;SDS011;9464;44.918;9.670;2022-12-19T03:52:33;34.13;;;15.77;;
18669;SDS011;9464;44.918;9.670;2022-12-19T03:55:03;33.53;;;16.13;;
18669;SDS011;9464;44.918;9.670;2022-12-19T03:57:33;32.03;;;15.63;;
18669;SDS011;9464;44.918;9.670;2022-12-19T04:00:05;31.73;;;15.60;;
18669;SDS011;9464;44.918;9.670;2022-12-19T04:02:36;32.83;;;15.70;;
18669;SDS011;9464;44.918;9.670;2022-12-19T04:05:05;42.00;;;16.87;;
18669;SDS011;9464;44.918;9.670;2022-12-19T04:07:34;35.63;;;17.23;;
18669;SDS011;9464;44.918;9.670;2022-12-19T04:10:04;34.00;;;15.70;;
18669;SDS011;9464;44.918;9.670;2022-12-19T04:12:34;29.73;;;15.03;;
18669;SDS011;9464;44.918;9.670;2022-12-19T04:15:04;26.90;;;13.93;;
18669;SDS011;9464;44.918;9.670;2022-12-19T04:17:37;24.70;;;12.00;;
18669;SDS011;9464;44.918;9.670;2022-12-19T04:20:08;22.83;;;11.57;;
18669;SDS011;9464;44.918;9.670;2022-12-19T04:22:38;21.57;;;11.53;;
18669;SDS011;9464;44.918;9.670;2022-12-19T04:25:09;19.83;;;11.03;;
18669;SDS011;9464;44.918;9.670;2022-12-19T04:27:39;27.57;;;11.83;;
18669;SDS011;9464;44.918;9.670;2022-12-19T04:30:09;22.93;;;11.23;;
18669;SDS011;9464;44.918;9.670;2022-12-19T04:32:41;21.30;;;11.30;;
18669;SDS011;9464;44.918;9.670;2022-12-19T04:35:10;23.80;;;11.80;;
18669;SDS011;9464;44.918;9.670;2022-12-19T04:37:38;21.10;;;10.40;;
18669;SDS011;9464;44.918;9.670;2022-12-19T04:40:07;23.60;;;12.10;;
18669;SDS011;9464;44.918;9.670;2022-12-19T04:42:36;21.40;;;11.73;;
18669;SDS011;9464;44.918;9.670;2022-12-19T04:45:05;25.03;;;12.20;;
18669;SDS011;9464;44.918;9.670;2022-12-19T04:47:34;23.07;;;12.47;;
18669;SDS011;9464;44.918;9.670;2022-12-19T04:50:04;28.17;;;13.10;;
18669;SDS011;9464;44.918;9.670;2022-12-19T04:52:32;27.77;;;13.63;;
18669;SDS011;9464;44.918;9.670;2022-12-19T04:55:01;26.60;;;13.90;;
18669;SDS011;9464;44.918;9.670;2022-12-19T04:57:29;28.77;;;13.70;;
18669;SDS011;9464;44.918;9.670;2022-12-19T04:59:58;26.43;;;12.87;;
18669;SDS011;9464;44.918;9.670;2022-12-19T05:02:29;28.17;;;13.30;;
18669;SDS011;9464;44.918;9.670;2022-12-19T05:04:57;26.77;;;13.30;;
18669;SDS011;9464;44.918;9.670;2022-12-19T05:07:27;27.77;;;13.87;;
18669;SDS011;9464;44.918;9.670;2022-12-19T05:09:56;24.53;;;13.30;;
18669;SDS011;9464;44.918;9.670;2022-12-19T05:12:24;27.87;;;14.33;;
18669;SDS011;9464;44.918;9.670;2022-12-19T05:14:53;28.70;;;13.40;;
18669;SDS011;9464;44.918;9.670;2022-12-19T05:17:21;30.07;;;14.47;;
18669;SDS011;9464;44.918;9.670;2022-12-19T05:19:49;32.73;;;13.43;;
18669;SDS011;9464;44.918;9.670;2022-12-19T05:22:18;29.83;;;13.50;;
18669;SDS011;9464;44.918;9.670;2022-12-19T05:24:48;30.23;;;14.40;;
18669;SDS011;9464;44.918;9.670;2022-12-19T05:27:16;29.50;;;14.30;;
18669;SDS011;9464;44.918;9.670;2022-12-19T05:29:44;26.13;;;12.83;;
18669;SDS011;9464;44.918;9.670;2022-12-19T05:32:13;31.10;;;13.90;;
18669;SDS011;9464;44.918;9.670;2022-12-19T05:34:41;27.73;;;13.07;;
18669;SDS011;9464;44.918;9.670;2022-12-19T05:37:10;26.13;;;12.77;;
18669;SDS011;9464;44.918;9.670;2022-12-19T05:39:38;29.07;;;13.83;;
18669;SDS011;9464;44.918;9.670;2022-12-19T05:42:08;29.23;;;13.53;;
18669;SDS011;9464;44.918;9.670;2022-12-19T05:44:38;28.73;;;13.43;;
18669;SDS011;9464;44.918;9.670;2022-12-19T05:47:06;28.50;;;14.43;;
18669;SDS011;9464;44.918;9.670;2022-12-19T05:49:35;25.10;;;12.10;;
18669;SDS011;9464;44.918;9.670;2022-12-19T05:52:03;27.37;;;12.80;;
18669;SDS011;9464;44.918;9.670;2022-12-19T05:54:32;33.33;;;14.13;;
18669;SDS011;9464;44.918;9.670;2022-12-19T05:57:00;32.67;;;14.07;;
18669;SDS011;9464;44.918;9.670;2022-12-19T05:59:30;31.30;;;13.30;;
18669;SDS011;9464;44.918;9.670;2022-12-19T06:01:58;28.80;;;14.27;;
18669;SDS011;9464;44.918;9.670;2022-12-19T06:04:27;31.87;;;14.20;;
18669;SDS011;9464;44.918;9.670;2022-12-19T06:06:56;29.03;;;14.00;;
18669;SDS011;9464;44.918;9.670;2022-12-19T06:09:25;30.63;;;13.70;;
18669;SDS011;9464;44.918;9.670;2022-12-19T06:11:53;31.13;;;14.57;;
18669;SDS011;9464;44.918;9.670;2022-12-19T06:14:21;30.00;;;14.07;;
18669;SDS011;9464;44.918;9.670;2022-12-19T06:16:52;30.10;;;13.77;;
18669;SDS011;9464;44.918;9.670;2022-12-19T06:19:20;29.90;;;14.07;;
18669;SDS011;9464;44.918;9.670;2022-12-19T06:21:49;25.17;;;12.70;;
18669;SDS011;9464;44.918;9.670;2022-12-19T06:24:17;27.70;;;13.13;;
18669;SDS011;9464;44.918;9.670;2022-12-19T06:26:46;25.70;;;12.43;;
18669;SDS011;9464;44.918;9.670;2022-12-19T06:29:15;28.23;;;12.63;;
18669;SDS011;9464;44.918;9.670;2022-12-19T06:31:43;29.37;;;13.63;;
18669;SDS011;9464;44.918;9.670;2022-12-19T06:34:13;28.13;;;14.03;;
18669;SDS011;9464;44.918;9.670;2022-12-19T06:37:01;26.47;;;13.33;;
18669;SDS011;9464;44.918;9.670;2022-12-19T06:39:33;30.17;;;13.67;;
18669;SDS011;9464;44.918;9.670;2022-12-19T06:42:02;27.37;;;13.17;;
18669;SDS011;9464;44.918;9.670;2022-12-19T06:44:48;26.37;;;13.10;;
18669;SDS011;9464;44.918;9.670;2022-12-19T06:47:16;28.90;;;13.77;;
18669;SDS011;9464;44.918;9.670;2022-12-19T06:49:48;30.73;;;14.43;;
18669;SDS011;9464;44.918;9.670;2022-12-19T06:52:17;30.40;;;13.70;;
18669;SDS011;9464;44.918;9.670;2022-12-19T06:54:45;30.27;;;15.17;;
18669;SDS011;9464;44.918;9.670;2022-12-19T06:57:13;29.17;;;13.77;;
18669;SDS011;9464;44.918;9.670;2022-12-19T06:59:42;28.87;;;13.83;;
18669;SDS011;9464;44.918;9.670;2022-12-19T07:02:15;28.10;;;14.03;;
18669;SDS011;9464;44.918;9.670;2022-12-19T07:04:45;29.10;;;13.80;;
18669;SDS011;9464;44.918;9.670;2022-12-19T07:07:16;28.93;;;14.50;;
18669;SDS011;9464;44.918;9.670;2022-12-19T07:09:44;28.77;;;13.93;;
18669;SDS011;9464;44.918;9.670;2022-12-19T07:12:13;35.73;;;14.17;;
18669;SDS011;9464;44.918;9.670;2022-12-19T07:14:41;28.37;;;14.33;;
18669;SDS011;9464;44.918;9.670;2022-12-19T07:17:17;29.43;;;14.73;;
18669;SDS011;9464;44.918;9.670;2022-12-19T07:19:46;36.53;;;15.30;;
18669;SDS011;9464;44.918;9.670;2022-12-19T07:22:15;32.77;;;14.40;;
18669;SDS011;9464;44.918;9.670;2022-12-19T07:24:44;36.37;;;15.80;;
18669;SDS011;9464;44.918;9.670;2022-12-19T07:27:13;33.13;;;15.43;;
18669;SDS011;9464;44.918;9.670;2022-12-19T07:29:41;30.47;;;15.37;;
18669;SDS011;9464;44.918;9.670;2022-12-19T07:32:09;32.67;;;15.20;;
18669;SDS011;9464;44.918;9.670;2022-12-19T07:34:38;32.67;;;15.07;;
18669;SDS011;9464;44.918;9.670;2022-12-19T07:37:06;37.50;;;15.47;;
18669;SDS011;9464;44.918;9.670;2022-12-19T07:39:36;37.97;;;16.70;;
18669;SDS011;9464;44.918;9.670;2022-12-19T07:42:04;40.40;;;16.73;;
18669;SDS011;9464;44.918;9.670;2022-12-19T07:44:33;33.23;;;14.70;;
18669;SDS011;9464;44.918;9.670;2022-12-19T07:47:02;41.57;;;17.70;;
18669;SDS011;9464;44.918;9.670;2022-12-19T07:49:30;32.27;;;15.20;;
18669;SDS011;9464;44.918;9.670;2022-12-19T07:51:59;35.70;;;15.60;;
18669;SDS011;9464;44.918;9.670;2022-12-19T07:54:27;31.37;;;15.13;;
18669;SDS011;9464;44.918;9.670;2022-12-19T07:56:57;33.37;;;16.13;;
18669;SDS011;9464;44.918;9.670;2022-12-19T07:59:26;38.47;;;15.83;;
18669;SDS011;9464;44.918;9.670;2022-12-19T08:02:04;32.53;;;15.67;;
18669;SDS011;9464;44.918;9.670;2022-12-19T08:04:33;32.70;;;15.40;;
18669;SDS011;9464;44.918;9.670;2022-12-19T08:07:02;37.27;;;16.77;;
18669;SDS011;9464;44.918;9.670;2022-12-19T08:09:30;36.77;;;16.20;;
18669;SDS011;9464;44.918;9.670;2022-12-19T08:12:00;39.93;;;17.07;;
18669;SDS011;9464;44.918;9.670;2022-12-19T08:14:29;37.23;;;16.60;;
18669;SDS011;9464;44.918;9.670;2022-12-19T08:16:57;44.50;;;17.00;;
18669;SDS011;9464;44.918;9.670;2022-12-19T08:19:46;41.17;;;17.00;;
18669;SDS011;9464;44.918;9.670;2022-12-19T08:22:14;37.70;;;18.17;;
18669;SDS011;9464;44.918;9.670;2022-12-19T08:24:44;41.97;;;19.17;;
18669;SDS011;9464;44.918;9.670;2022-12-19T08:27:15;41.83;;;17.20;;
18669;SDS011;9464;44.918;9.670;2022-12-19T08:29:44;49.13;;;19.63;;
18669;SDS011;9464;44.918;9.670;2022-12-19T08:32:13;48.03;;;18.80;;
18669;SDS011;9464;44.918;9.670;2022-12-19T08:34:46;44.87;;;19.20;;
18669;SDS011;9464;44.918;9.670;2022-12-19T08:37:14;54.23;;;20.07;;
18669;SDS011;9464;44.918;9.670;2022-12-19T08:39:43;48.83;;;19.80;;
18669;SDS011;9464;44.918;9.670;2022-12-19T08:42:11;50.00;;;22.50;;
18669;SDS011;9464;44.918;9.670;2022-12-19T08:44:41;48.80;;;20.67;;
18669;SDS011;9464;44.918;9.670;2022-12-19T08:47:10;49.60;;;20.97;;
18669;SDS011;9464;44.918;9.670;2022-12-19T08:49:38;49.97;;;22.20;;
18669;SDS011;9464;44.918;9.670;2022-12-19T08:52:07;48.97;;;21.67;;
18669;SDS011;9464;44.918;9.670;2022-12-19T08:54:35;56.40;;;21.17;;
18669;SDS011;9464;44.918;9.670;2022-12-19T08:57:04;58.17;;;21.60;;
18669;SDS011;9464;44.918;9.670;2022-12-19T08:59:32;52.57;;;21.10;;
18669;SDS011;9464;44.918;9.670;2022-12-19T09:02:03;48.27;;;20.23;;
18669;SDS011;9464;44.918;9.670;2022-12-19T09:04:32;45.93;;;20.83;;
18669;SDS011;9464;44.918;9.670;2022-12-19T09:07:20;54.07;;;20.57;;
18669;SDS011;9464;44.918;9.670;2022-12-19T09:09:49;52.30;;;21.53;;
18669;SDS011;9464;44.918;9.670;2022-12-19T09:12:17;46.83;;;19.67;;
18669;SDS011;9464;44.918;9.670;2022-12-19T09:14:46;54.70;;;20.87;;
18669;SDS011;9464;44.918;9.670;2022-12-19T09:17:16;59.97;;;21.43;;
18669;SDS011;9464;44.918;9.670;2022-12-19T09:19:44;48.93;;;20.63;;
18669;SDS011;9464;44.918;9.670;2022-12-19T09:22:13;53.33;;;21.57;;
18669;SDS011;9464;44.918;9.670;2022-12-19T09:24:42;49.70;;;21.50;;
18669;SDS011;9464;44.918;9.670;2022-12-19T09:27:11;47.63;;;19.73;;
18669;SDS011;9464;44.918;9.670;2022-12-19T09:29:40;48.67;;;21.17;;
18669;SDS011;9464;44.918;9.670;2022-12-19T09:32:09;47.90;;;21.30;;
18669;SDS011;9464;44.918;9.670;2022-12-19T09:34:39;48.30;;;19.40;;
18669;SDS011;9464;44.918;9.670;2022-12-19T09:37:08;48.40;;;19.07;;
18669;SDS011;9464;44.918;9.670;2022-12-19T09:39:43;54.20;;;21.13;;
18669;SDS011;9464;44.918;9.670;2022-12-19T09:42:15;46.53;;;20.43;;
18669;SDS011;9464;44.918;9.670;2022-12-19T09:44:52;47.10;;;18.87;;
18669;SDS011;9464;44.918;9.670;2022-12-19T09:47:26;51.97;;;19.63;;
18669;SDS011;9464;44.918;9.670;2022-12-19T09:49:58;43.23;;;17.90;;
18669;SDS011;9464;44.918;9.670;2022-12-19T09:52:28;51.73;;;20.87;;
18669;SDS011;9464;44.918;9.670;2022-12-19T09:55:00;60.47;;;22.40;;
18669;SDS011;9464;44.918;9.670;2022-12-19T09:57:32;57.70;;;22.33;;
18669;SDS011;9464;44.918;9.670;2022-12-19T10:00:03;61.97;;;22.03;;
18669;SDS011;9464;44.918;9.670;2022-12-19T10:02:34;58.23;;;22.93;;
18669;SDS011;9464;44.918;9.670;2022-12-19T10:05:10;63.00;;;23.07;;
18669;SDS011;9464;44.918;9.670;2022-12-19T10:07:59;58.17;;;21.83;;
18669;SDS011;9464;44.918;9.670;2022-12-19T10:10:37;49.97;;;19.20;;
18669;SDS011;9464;44.918;9.670;2022-12-19T10:13:32;60.20;;;23.83;;
18669;SDS011;9464;44.918;9.670;2022-12-19T10:16:04;53.20;;;20.73;;
18669;SDS011;9464;44.918;9.670;2022-12-19T10:18:40;58.57;;;21.50;;
18669;SDS011;9464;44.918;9.670;2022-12-19T10:21:11;52.97;;;21.17;;
18669;SDS011;9464;44.918;9.670;2022-12-19T10:24:14;56.10;;;19.57;;
18669;SDS011;9464;44.918;9.670;2022-12-19T10:26:48;59.30;;;20.97;;
18669;SDS011;9464;44.918;9.670;2022-12-19T10:32:12;64.03;;;21.53;;
18669;SDS011;9464;44.918;9.670;2022-12-19T10:34:43;61.83;;;24.10;;
18669;SDS011;9464;44.918;9.670;2022-12-19T10:37:15;64.53;;;23.03;;
18669;SDS011;9464;44.918;9.670;2022-12-19T10:40:00;63.57;;;23.93;;
18669;SDS011;9464;44.918;9.670;2022-12-19T10:42:40;58.57;;;21.13;;
18669;SDS011;9464;44.918;9.670;2022-12-19T10:45:13;52.00;;;21.87;;
18669;SDS011;9464;44.918;9.670;2022-12-19T10:47:42;65.87;;;23.07;;
18669;SDS011;9464;44.918;9.670;2022-12-19T10:50:11;64.07;;;23.00;;
18669;SDS011;9464;44.918;9.670;2022-12-19T10:52:46;59.40;;;21.50;;
18669;SDS011;9464;44.918;9.670;2022-12-19T10:55:20;67.37;;;23.87;;
18669;SDS011;9464;44.918;9.670;2022-12-19T10:57:49;69.17;;;24.87;;
18669;SDS011;9464;44.918;9.670;2022-12-19T11:00:18;63.40;;;23.47;;
18669;SDS011;9464;44.918;9.670;2022-12-19T11:02:47;62.13;;;22.87;;
18669;SDS011;9464;44.918;9.670;2022-12-19T11:05:21;72.67;;;24.23;;
18669;SDS011;9464;44.918;9.670;2022-12-19T11:08:14;66.97;;;24.53;;
18669;SDS011;9464;44.918;9.670;2022-12-19T11:10:43;59.90;;;22.17;;
18669;SDS011;9464;44.918;9.670;2022-12-19T11:13:38;67.73;;;23.17;;
18669;SDS011;9464;44.918;9.670;2022-12-19T11:16:33;51.07;;;21.63;;
18669;SDS011;9464;44.918;9.670;2022-12-19T11:19:25;60.87;;;21.83;;
18669;SDS011;9464;44.918;9.670;2022-12-19T11:22:15;60.47;;;21.70;;
18669;SDS011;9464;44.918;9.670;2022-12-19T11:25:14;53.67;;;22.43;;
18669;SDS011;9464;44.918;9.670;2022-12-19T11:28:03;53.23;;;20.30;;
18669;SDS011;9464;44.918;9.670;2022-12-19T11:30:56;58.27;;;21.87;;
18669;SDS011;9464;44.918;9.670;2022-12-19T11:33:45;60.37;;;22.33;;
18669;SDS011;9464;44.918;9.670;2022-12-19T11:36:25;58.77;;;22.63;;
18669;SDS011;9464;44.918;9.670;2022-12-19T11:38:55;51.63;;;21.33;;
18669;SDS011;9464;44.918;9.670;2022-12-19T11:41:27;58.87;;;22.10;;
18669;SDS011;9464;44.918;9.670;2022-12-19T11:43:58;52.53;;;21.37;;
18669;SDS011;9464;44.918;9.670;2022-12-19T11:46:32;54.20;;;21.83;;
18669;SDS011;9464;44.918;9.670;2022-12-19T11:49:03;56.47;;;21.73;;
18669;SDS011;9464;44.918;9.670;2022-12-19T11:51:33;60.87;;;22.97;;
18669;SDS011;9464;44.918;9.670;2022-12-19T11:54:08;50.20;;;21.67;;
18669;SDS011;9464;44.918;9.670;2022-12-19T11:56:41;49.10;;;21.43;;
18669;SDS011;9464;44.918;9.670;2022-12-19T11:59:11;50.63;;;20.60;;
18669;SDS011;9464;44.918;9.670;2022-12-19T12:01:41;53.83;;;22.37;;
18669;SDS011;9464;44.918;9.670;2022-12-19T12:04:32;60.73;;;22.17;;
18669;SDS011;9464;44.918;9.670;2022-12-19T12:07:04;53.20;;;20.53;;
18669;SDS011;9464;44.918;9.670;2022-12-19T12:09:54;57.00;;;21.93;;
18669;SDS011;9464;44.918;9.670;2022-12-19T12:12:49;68.53;;;24.00;;
18669;SDS011;9464;44.918;9.670;2022-12-19T12:15:43;60.17;;;22.90;;
18669;SDS011;9464;44.918;9.670;2022-12-19T12:18:38;62.50;;;24.73;;
18669;SDS011;9464;44.918;9.670;2022-12-19T12:21:32;66.20;;;25.70;;
18669;SDS011;9464;44.918;9.670;2022-12-19T12:24:28;65.10;;;23.93;;
18669;SDS011;9464;44.918;9.670;2022-12-19T12:27:27;65.37;;;24.80;;
18669;SDS011;9464;44.918;9.670;2022-12-19T12:30:18;62.00;;;24.43;;
18669;SDS011;9464;44.918;9.670;2022-12-19T12:33:11;68.57;;;24.90;;
18669;SDS011;9464;44.918;9.670;2022-12-19T12:36:03;55.13;;;23.90;;
18669;SDS011;9464;44.918;9.670;2022-12-19T12:39:02;68.57;;;26.73;;
18669;SDS011;9464;44.918;9.670;2022-12-19T12:41:33;57.23;;;24.70;;
18669;SDS011;9464;44.918;9.670;2022-12-19T12:44:23;64.33;;;24.67;;
18669;SDS011;9464;44.918;9.670;2022-12-19T12:47:01;66.60;;;25.30;;
18669;SDS011;9464;44.918;9.670;2022-12-19T12:49:35;64.53;;;24.83;;
18669;SDS011;9464;44.918;9.670;2022-12-19T12:52:05;58.50;;;25.33;;
18669;SDS011;9464;44.918;9.670;2022-12-19T12:54:35;62.90;;;25.80;;
18669;SDS011;9464;44.918;9.670;2022-12-19T12:57:05;56.33;;;23.77;;
18669;SDS011;9464;44.918;9.670;2022-12-19T12:59:33;61.33;;;24.47;;
18669;SDS011;9464;44.918;9.670;2022-12-19T13:02:12;51.67;;;24.07;;
18669;SDS011;9464;44.918;9.670;2022-12-19T13:04:42;55.43;;;24.27;;
18669;SDS011;9464;44.918;9.670;2022-12-19T13:07:33;63.43;;;25.23;;
18669;SDS011;9464;44.918;9.670;2022-12-19T13:10:17;65.07;;;23.30;;
18669;SDS011;9464;44.918;9.670;2022-12-19T13:12:58;58.23;;;24.73;;
18669;SDS011;9464;44.918;9.670;2022-12-19T13:15:31;64.27;;;27.07;;
18669;SDS011;9464;44.918;9.670;2022-12-19T13:20:50;56.70;;;25.13;;
18669;SDS011;9464;44.918;9.670;2022-12-19T13:23:21;52.73;;;22.10;;
18669;SDS011;9464;44.918;9.670;2022-12-19T13:25:51;56.03;;;21.53;;
18669;SDS011;9464;44.918;9.670;2022-12-19T13:28:39;59.90;;;24.23;;
18669;SDS011;9464;44.918;9.670;2022-12-19T13:31:18;53.23;;;22.87;;
18669;SDS011;9464;44.918;9.670;2022-12-19T13:36:49;52.93;;;23.27;;
18669;SDS011;9464;44.918;9.670;2022-12-19T13:39:40;51.20;;;22.10;;
18669;SDS011;9464;44.918;9.670;2022-12-19T13:42:31;51.47;;;22.70;;
18669;SDS011;9464;44.918;9.670;2022-12-19T13:45:36;52.27;;;22.83;;
18669;SDS011;9464;44.918;9.670;2022-12-19T13:48:08;57.73;;;24.33;;
18669;SDS011;9464;44.918;9.670;2022-12-19T13:50:39;58.60;;;23.20;;
18669;SDS011;9464;44.918;9.670;2022-12-19T13:53:10;61.87;;;24.07;;
18669;SDS011;9464;44.918;9.670;2022-12-19T13:55:41;54.40;;;22.77;;
18669;SDS011;9464;44.918;9.670;2022-12-19T13:58:16;53.10;;;23.13;;
18669;SDS011;9464;44.918;9.670;2022-12-19T14:00:55;61.13;;;24.93;;
18669;SDS011;9464;44.918;9.670;2022-12-19T14:03:31;54.43;;;23.37;;
18669;SDS011;9464;44.918;9.670;2022-12-19T14:06:02;57.33;;;23.80;;
18669;SDS011;9464;44.918;9.670;2022-12-19T14:08:44;52.03;;;23.30;;
18669;SDS011;9464;44.918;9.670;2022-12-19T14:11:34;54.30;;;24.00;;
18669;SDS011;9464;44.918;9.670;2022-12-19T14:14:26;60.50;;;24.20;;
18669;SDS011;9464;44.918;9.670;2022-12-19T14:17:13;55.77;;;24.23;;
18669;SDS011;9464;44.918;9.670;2022-12-19T14:19:42;51.93;;;25.20;;
18669;SDS011;9464;44.918;9.670;2022-12-19T14:22:12;55.80;;;24.47;;
18669;SDS011;9464;44.918;9.670;2022-12-19T14:24:56;56.27;;;24.43;;
18669;SDS011;9464;44.918;9.670;2022-12-19T14:27:49;65.43;;;26.27;;
18669;SDS011;9464;44.918;9.670;2022-12-19T14:30:40;51.10;;;22.67;;
18669;SDS011;9464;44.918;9.670;2022-12-19T14:33:10;60.87;;;24.33;;
18669;SDS011;9464;44.918;9.670;2022-12-19T14:36:00;60.80;;;25.37;;
18669;SDS011;9464;44.918;9.670;2022-12-19T14:38:38;63.87;;;25.47;;
18669;SDS011;9464;44.918;9.670;2022-12-19T14:41:38;64.87;;;26.40;;
18669;SDS011;9464;44.918;9.670;2022-12-19T14:47:46;54.43;;;25.23;;
18669;SDS011;9464;44.918;9.670;2022-12-19T14:50:35;57.60;;;25.97;;
18669;SDS011;9464;44.918;9.670;2022-12-19T14:53:24;56.17;;;25.33;;
18669;SDS011;9464;44.918;9.670;2022-12-19T14:56:13;64.43;;;27.13;;
18669;SDS011;9464;44.918;9.670;2022-12-19T14:59:04;60.60;;;24.97;;
18669;SDS011;9464;44.918;9.670;2022-12-19T15:01:32;73.83;;;27.93;;
18669;SDS011;9464;44.918;9.670;2022-12-19T15:04:04;59.13;;;25.37;;
18669;SDS011;9464;44.918;9.670;2022-12-19T15:06:54;56.10;;;24.63;;
18669;SDS011;9464;44.918;9.670;2022-12-19T15:09:42;58.00;;;25.27;;
18669;SDS011;9464;44.918;9.670;2022-12-19T15:12:32;60.30;;;25.43;;
18669;SDS011;9464;44.918;9.670;2022-12-19T15:15:40;67.97;;;28.40;;
18669;SDS011;9464;44.918;9.670;2022-12-19T15:18:16;76.77;;;30.07;;
18669;SDS011;9464;44.918;9.670;2022-12-19T15:20:45;77.23;;;30.43;;
18669;SDS011;9464;44.918;9.670;2022-12-19T15:23:13;64.83;;;27.57;;
18669;SDS011;9464;44.918;9.670;2022-12-19T15:25:48;62.30;;;26.47;;
18669;SDS011;9464;44.918;9.670;2022-12-19T15:28:35;88.27;;;36.67;;